sensor_id;sensor_type;location;lat;lon;timestamp;pressure;altitude;pressure_sealevel;temperature;humidity
67842;BME280;54642;59.126;37.876;2023-02-28T00:01:22;99306.00;;;-4.86;70.99
67842;BME280;54642;59.126;37.876;2023-02-28T00:03:49;99346.03;;;-4.76;71.25
67842;BME280;54642;59.126;37.876;2023-02-28T00:06:15;99323.63;;;-4.88;71.08
67842;BME280;54642;59.126;37.876;2023-02-28T00:08:41;99312.19;;;-4.80;71.08
67842;BME280;54642;59.126;37.876;2023-02-28T00:11:12;99233.97;;;-5.15;70.94
67842;BME280;54642;59.126;37.876;2023-02-28T00:13:41;99321.81;;;-4.71;71.10
67842;BME280;54642;59.126;37.876;2023-02-28T00:16:12;99291.63;;;-4.87;70.97
67842;BME280;54642;59.126;37.876;2023-02-28T00:18:40;99304.13;;;-4.71;71.37
67842;BME280;54642;59.126;37.876;2023-02-28T00:21:07;99288.78;;;-4.75;71.05
67842;BME280;54642;59.126;37.876;2023-02-28T00:23:34;99220.88;;;-5.07;71.03
67842;BME280;54642;59.126;37.876;2023-02-28T00:26:00;99259.53;;;-4.70;71.04
67842;BME280;54642;59.126;37.876;2023-02-28T00:28:26;99238.78;;;-4.83;70.98
67842;BME280;54642;59.126;37.876;2023-02-28T00:30:52;99249.91;;;-4.78;71.31
67842;BME280;54642;59.126;37.876;2023-02-28T00:33:18;99215.81;;;-4.87;71.35
67842;BME280;54642;59.126;37.876;2023-02-28T00:35:44;99242.41;;;-4.76;71.50
67842;BME280;54642;59.126;37.876;2023-02-28T00:38:13;99245.00;;;-4.74;71.58
67842;BME280;54642;59.126;37.876;2023-02-28T00:40:39;99246.28;;;-4.65;71.59
67842;BME280;54642;59.126;37.876;2023-02-28T00:43:05;99213.81;;;-4.75;71.59
67842;BME280;54642;59.126;37.876;2023-02-28T00:45:31;99187.28;;;-4.85;71.67
67842;BME280;54642;59.126;37.876;2023-02-28T00:47:57;99182.50;;;-4.79;71.98
67842;BME280;54642;59.126;37.876;2023-02-28T00:50:22;99208.75;;;-4.75;71.84
67842;BME280;54642;59.126;37.876;2023-02-28T00:52:48;99187.53;;;-4.79;72.03
67842;BME280;54642;59.126;37.876;2023-02-28T00:55:14;99149.19;;;-4.89;71.90
67842;BME280;54642;59.126;37.876;2023-02-28T00:57:40;99195.16;;;-4.57;71.98
67842;BME280;54642;59.126;37.876;2023-02-28T01:00:07;99145.38;;;-4.99;71.93
67842;BME280;54642;59.126;37.876;2023-02-28T01:02:33;99152.22;;;-4.77;72.09
67842;BME280;54642;59.126;37.876;2023-02-28T01:04:59;99190.19;;;-4.56;72.10
67842;BME280;54642;59.126;37.876;2023-02-28T01:07:28;99125.75;;;-4.85;72.26
67842;BME280;54642;59.126;37.876;2023-02-28T01:09:54;99110.22;;;-4.94;72.52
67842;BME280;54642;59.126;37.876;2023-02-28T01:12:20;99122.06;;;-4.93;72.30
67842;BME280;54642;59.126;37.876;2023-02-28T01:14:46;99193.56;;;-4.55;72.58
67842;BME280;54642;59.126;37.876;2023-02-28T01:17:12;99172.81;;;-4.68;72.63
67842;BME280;54642;59.126;37.876;2023-02-28T01:19:38;99187.59;;;-4.57;72.46
67842;BME280;54642;59.126;37.876;2023-02-28T01:22:05;99142.72;;;-4.83;72.43
67842;BME280;54642;59.126;37.876;2023-02-28T01:24:32;99136.56;;;-4.89;72.61
67842;BME280;54642;59.126;37.876;2023-02-28T01:26:58;99094.84;;;-5.20;72.55
67842;BME280;54642;59.126;37.876;2023-02-28T01:29:24;99198.34;;;-4.62;72.82
67842;BME280;54642;59.126;37.876;2023-02-28T01:31:52;99137.47;;;-4.87;72.71
67842;BME280;54642;59.126;37.876;2023-02-28T01:34:18;99165.63;;;-4.58;73.08
67842;BME280;54642;59.126;37.876;2023-02-28T01:36:45;99196.31;;;-4.49;73.06
67842;BME280;54642;59.126;37.876;2023-02-28T01:39:11;99139.53;;;-4.79;72.98
67842;BME280;54642;59.126;37.876;2023-02-28T01:41:39;99179.50;;;-4.49;73.26
67842;BME280;54642;59.126;37.876;2023-02-28T01:47:11;99183.63;;;-4.51;73.54
67842;BME280;54642;59.126;37.876;2023-02-28T01:49:37;99190.47;;;-4.48;73.65
67842;BME280;54642;59.126;37.876;2023-02-28T01:52:03;99154.31;;;-4.46;73.54
67842;BME280;54642;59.126;37.876;2023-02-28T01:54:31;99156.69;;;-4.50;73.94
67842;BME280;54642;59.126;37.876;2023-02-28T01:57:06;99156.22;;;-4.40;73.91
67842;BME280;54642;59.126;37.876;2023-02-28T01:59:49;99143.41;;;-4.66;74.20
67842;BME280;54642;59.126;37.876;2023-02-28T02:02:19;99112.53;;;-4.58;74.34
67842;BME280;54642;59.126;37.876;2023-02-28T02:07:16;99118.75;;;-4.50;74.75
67842;BME280;54642;59.126;37.876;2023-02-28T02:09:44;99064.97;;;-4.67;74.49
67842;BME280;54642;59.126;37.876;2023-02-28T02:15:45;99073.06;;;-4.55;74.45
67842;BME280;54642;59.126;37.876;2023-02-28T02:23:47;99080.84;;;-4.28;74.98
67842;BME280;54642;59.126;37.876;2023-02-28T02:26:34;99063.81;;;-4.32;75.09
67842;BME280;54642;59.126;37.876;2023-02-28T02:35:04;99058.06;;;-4.28;75.44
67842;BME280;54642;59.126;37.876;2023-02-28T02:42:51;99024.97;;;-4.34;75.76
67842;BME280;54642;59.126;37.876;2023-02-28T02:45:34;99034.78;;;-4.19;75.89
67842;BME280;54642;59.126;37.876;2023-02-28T02:48:07;99031.16;;;-4.26;75.94
67842;BME280;54642;59.126;37.876;2023-02-28T02:50:41;99034.72;;;-4.21;75.89
67842;BME280;54642;59.126;37.876;2023-02-28T02:53:10;98970.94;;;-4.58;76.00
67842;BME280;54642;59.126;37.876;2023-02-28T02:55:41;98987.28;;;-4.50;75.94
67842;BME280;54642;59.126;37.876;2023-02-28T02:58:13;99035.81;;;-4.14;75.95
67842;BME280;54642;59.126;37.876;2023-02-28T03:00:49;98971.53;;;-4.43;76.28
67842;BME280;54642;59.126;37.876;2023-02-28T03:03:18;98941.63;;;-4.53;75.97
67842;BME280;54642;59.126;37.876;2023-02-28T03:05:59;98972.72;;;-4.33;76.33
67842;BME280;54642;59.126;37.876;2023-02-28T03:08:28;98987.75;;;-4.14;76.05
67842;BME280;54642;59.126;37.876;2023-02-28T03:11:01;98966.66;;;-4.14;76.38
67842;BME280;54642;59.126;37.876;2023-02-28T03:27:49;98928.00;;;-4.10;76.65
67842;BME280;54642;59.126;37.876;2023-02-28T03:30:24;98954.59;;;-3.97;76.66
67842;BME280;54642;59.126;37.876;2023-02-28T03:32:58;98939.53;;;-3.94;76.63
67842;BME280;54642;59.126;37.876;2023-02-28T03:35:57;98941.34;;;-3.90;76.63
67842;BME280;54642;59.126;37.876;2023-02-28T03:38:33;98922.41;;;-4.02;76.41
67842;BME280;54642;59.126;37.876;2023-02-28T03:41:15;98885.91;;;-4.08;76.33
67842;BME280;54642;59.126;37.876;2023-02-28T03:43:50;98917.00;;;-3.87;76.43
67842;BME280;54642;59.126;37.876;2023-02-28T03:46:20;98885.72;;;-3.89;76.18
67842;BME280;54642;59.126;37.876;2023-02-28T03:48:53;98900.13;;;-3.88;76.35
67842;BME280;54642;59.126;37.876;2023-02-28T03:51:22;98805.78;;;-4.33;76.14
67842;BME280;54642;59.126;37.876;2023-02-28T03:53:55;98861.19;;;-3.91;76.23
67842;BME280;54642;59.126;37.876;2023-02-28T03:56:34;98836.44;;;-4.00;76.35
67842;BME280;54642;59.126;37.876;2023-02-28T03:59:19;98895.66;;;-3.69;76.33
67842;BME280;54642;59.126;37.876;2023-02-28T04:01:48;98867.81;;;-3.69;76.35
67842;BME280;54642;59.126;37.876;2023-02-28T04:04:15;98846.25;;;-3.84;76.17
67842;BME280;54642;59.126;37.876;2023-02-28T04:06:43;98843.34;;;-3.69;76.15
67842;BME280;54642;59.126;37.876;2023-02-28T04:09:11;98865.56;;;-3.60;76.02
67842;BME280;54642;59.126;37.876;2023-02-28T04:11:52;98832.31;;;-3.71;76.04
67842;BME280;54642;59.126;37.876;2023-02-28T04:14:18;98818.63;;;-3.76;75.92
67842;BME280;54642;59.126;37.876;2023-02-28T04:16:44;98765.34;;;-4.08;75.95
67842;BME280;54642;59.126;37.876;2023-02-28T04:19:12;98840.47;;;-3.54;76.05
67842;BME280;54642;59.126;37.876;2023-02-28T04:24:06;98825.06;;;-3.60;75.87
67842;BME280;54642;59.126;37.876;2023-02-28T04:26:35;98819.41;;;-3.51;76.03
67842;BME280;54642;59.126;37.876;2023-02-28T04:29:03;98833.03;;;-3.48;75.78
67842;BME280;54642;59.126;37.876;2023-02-28T04:31:29;98822.09;;;-3.47;75.96
67842;BME280;54642;59.126;37.876;2023-02-28T04:33:56;98763.78;;;-3.77;75.93
67842;BME280;54642;59.126;37.876;2023-02-28T04:36:21;98807.91;;;-3.41;75.92
67842;BME280;54642;59.126;37.876;2023-02-28T04:38:49;98788.34;;;-3.46;75.62
67842;BME280;54642;59.126;37.876;2023-02-28T04:41:15;98797.59;;;-3.48;75.85
67842;BME280;54642;59.126;37.876;2023-02-28T04:43:42;98796.09;;;-3.41;75.82
67842;BME280;54642;59.126;37.876;2023-02-28T04:46:08;98761.75;;;-3.60;75.88
67842;BME280;54642;59.126;37.876;2023-02-28T04:48:36;98762.19;;;-3.46;76.03
67842;BME280;54642;59.126;37.876;2023-02-28T04:51:03;98757.31;;;-3.38;75.83
67842;BME280;54642;59.126;37.876;2023-02-28T04:53:30;98770.91;;;-3.36;76.08
67842;BME280;54642;59.126;37.876;2023-02-28T04:55:56;98772.00;;;-3.28;75.97
67842;BME280;54642;59.126;37.876;2023-02-28T04:58:22;98746.50;;;-3.34;76.04
67842;BME280;54642;59.126;37.876;2023-02-28T05:00:53;98766.19;;;-3.24;76.10
67842;BME280;54642;59.126;37.876;2023-02-28T05:03:20;98710.69;;;-3.47;76.17
67842;BME280;54642;59.126;37.876;2023-02-28T05:05:47;98752.88;;;-3.17;75.95
67842;BME280;54642;59.126;37.876;2023-02-28T05:08:13;98754.56;;;-3.17;76.33
67842;BME280;54642;59.126;37.876;2023-02-28T05:10:39;98757.28;;;-3.11;76.13
67842;BME280;54642;59.126;37.876;2023-02-28T05:13:05;98740.25;;;-3.15;76.35
67842;BME280;54642;59.126;37.876;2023-02-28T05:15:31;98754.97;;;-3.03;76.29
67842;BME280;54642;59.126;37.876;2023-02-28T05:17:57;98770.28;;;-3.00;76.64
67842;BME280;54642;59.126;37.876;2023-02-28T05:20:23;98670.84;;;-3.52;76.25
67842;BME280;54642;59.126;37.876;2023-02-28T05:22:49;98754.31;;;-2.96;76.64
67842;BME280;54642;59.126;37.876;2023-02-28T05:25:16;98757.97;;;-2.87;76.62
67842;BME280;54642;59.126;37.876;2023-02-28T05:27:42;98713.19;;;-3.18;76.67
67842;BME280;54642;59.126;37.876;2023-02-28T05:30:09;98748.34;;;-2.98;76.77
67842;BME280;54642;59.126;37.876;2023-02-28T05:32:38;98727.19;;;-3.00;76.79
67842;BME280;54642;59.126;37.876;2023-02-28T05:35:10;98733.50;;;-2.84;76.96
67842;BME280;54642;59.126;37.876;2023-02-28T05:37:37;98724.31;;;-2.81;76.95
67842;BME280;54642;59.126;37.876;2023-02-28T05:40:05;98726.19;;;-2.74;77.07
67842;BME280;54642;59.126;37.876;2023-02-28T05:42:33;98704.19;;;-2.75;76.94
67842;BME280;54642;59.126;37.876;2023-02-28T05:44:59;98698.47;;;-2.67;77.05
67842;BME280;54642;59.126;37.876;2023-02-28T05:47:25;98689.09;;;-2.70;77.08
67842;BME280;54642;59.126;37.876;2023-02-28T05:49:50;98627.41;;;-3.02;76.87
67842;BME280;54642;59.126;37.876;2023-02-28T05:52:17;98685.88;;;-2.64;76.85
67842;BME280;54642;59.126;37.876;2023-02-28T05:54:43;98665.34;;;-2.74;77.09
67842;BME280;54642;59.126;37.876;2023-02-28T05:57:09;98646.50;;;-2.83;77.09
67842;BME280;54642;59.126;37.876;2023-02-28T05:59:34;98681.16;;;-2.49;77.08
67842;BME280;54642;59.126;37.876;2023-02-28T06:02:06;98696.63;;;-2.40;77.14
67842;BME280;54642;59.126;37.876;2023-02-28T06:04:36;98624.63;;;-2.80;77.01
67842;BME280;54642;59.126;37.876;2023-02-28T06:07:02;98674.56;;;-2.42;77.08
67842;BME280;54642;59.126;37.876;2023-02-28T06:09:29;98677.25;;;-2.38;77.30
67842;BME280;54642;59.126;37.876;2023-02-28T06:11:57;98655.81;;;-2.49;77.12
67842;BME280;54642;59.126;37.876;2023-02-28T06:14:23;98685.88;;;-2.30;77.33
67842;BME280;54642;59.126;37.876;2023-02-28T06:16:49;98668.13;;;-2.30;77.21
67842;BME280;54642;59.126;37.876;2023-02-28T06:19:15;98596.19;;;-2.66;77.37
67842;BME280;54642;59.126;37.876;2023-02-28T06:21:41;98660.75;;;-2.19;77.40
67842;BME280;54642;59.126;37.876;2023-02-28T06:24:08;98643.84;;;-2.18;77.12
67842;BME280;54642;59.126;37.876;2023-02-28T06:26:34;98589.84;;;-2.49;76.86
67842;BME280;54642;59.126;37.876;2023-02-28T06:28:59;98645.00;;;-2.05;77.46
67842;BME280;54642;59.126;37.876;2023-02-28T06:31:26;98561.06;;;-2.51;77.26
67842;BME280;54642;59.126;37.876;2023-02-28T06:33:55;98619.53;;;-2.08;77.23
67842;BME280;54642;59.126;37.876;2023-02-28T06:36:21;98635.81;;;-2.00;77.27
67842;BME280;54642;59.126;37.876;2023-02-28T06:38:47;98634.00;;;-2.04;77.34
67842;BME280;54642;59.126;37.876;2023-02-28T06:41:22;98613.47;;;-2.15;77.64
67842;BME280;54642;59.126;37.876;2023-02-28T06:43:48;98655.53;;;-1.88;77.51
67842;BME280;54642;59.126;37.876;2023-02-28T06:46:14;98586.31;;;-2.19;77.69
67842;BME280;54642;59.126;37.876;2023-02-28T06:48:42;98631.78;;;-1.90;77.67
67842;BME280;54642;59.126;37.876;2023-02-28T06:51:12;98642.88;;;-1.87;77.70
67842;BME280;54642;59.126;37.876;2023-02-28T06:53:39;98645.38;;;-1.88;77.84
67842;BME280;54642;59.126;37.876;2023-02-28T06:56:08;98664.22;;;-1.77;77.88
67842;BME280;54642;59.126;37.876;2023-02-28T06:58:35;98656.59;;;-1.79;78.11
67842;BME280;54642;59.126;37.876;2023-02-28T07:01:01;98611.19;;;-2.03;78.20
67842;BME280;54642;59.126;37.876;2023-02-28T07:03:27;98641.25;;;-1.83;78.52
67842;BME280;54642;59.126;37.876;2023-02-28T07:05:53;98657.59;;;-1.70;78.34
67842;BME280;54642;59.126;37.876;2023-02-28T07:08:23;98654.94;;;-1.77;78.46
67842;BME280;54642;59.126;37.876;2023-02-28T07:10:54;98657.75;;;-1.63;78.40
67842;BME280;54642;59.126;37.876;2023-02-28T07:13:21;98648.72;;;-1.50;78.50
67842;BME280;54642;59.126;37.876;2023-02-28T07:16:02;98606.03;;;-1.66;78.29
67842;BME280;54642;59.126;37.876;2023-02-28T07:18:28;98601.88;;;-1.63;78.16
67842;BME280;54642;59.126;37.876;2023-02-28T07:20:54;98651.78;;;-1.24;78.11
67842;BME280;54642;59.126;37.876;2023-02-28T07:23:20;98647.50;;;-1.26;78.00
67842;BME280;54642;59.126;37.876;2023-02-28T07:25:47;98648.41;;;-1.23;78.05
67842;BME280;54642;59.126;37.876;2023-02-28T07:28:13;98597.22;;;-1.43;78.04
67842;BME280;54642;59.126;37.876;2023-02-28T07:30:41;98646.88;;;-1.15;78.19
67842;BME280;54642;59.126;37.876;2023-02-28T07:33:07;98647.78;;;-1.12;78.50
67842;BME280;54642;59.126;37.876;2023-02-28T07:35:33;98659.00;;;-1.01;78.29
67842;BME280;54642;59.126;37.876;2023-02-28T07:37:59;98666.63;;;-1.01;78.20
67842;BME280;54642;59.126;37.876;2023-02-28T07:40:25;98655.44;;;-1.09;78.45
67842;BME280;54642;59.126;37.876;2023-02-28T07:42:51;98667.59;;;-0.94;78.46
67842;BME280;54642;59.126;37.876;2023-02-28T07:45:17;98667.66;;;-0.90;78.24
67842;BME280;54642;59.126;37.876;2023-02-28T07:47:43;98655.97;;;-0.82;78.48
67842;BME280;54642;59.126;37.876;2023-02-28T07:50:12;98612.38;;;-1.02;78.31
67842;BME280;54642;59.126;37.876;2023-02-28T07:52:39;98659.44;;;-0.77;78.26
67842;BME280;54642;59.126;37.876;2023-02-28T07:55:07;98659.59;;;-0.67;78.27
67842;BME280;54642;59.126;37.876;2023-02-28T07:57:33;98598.94;;;-0.94;78.26
67842;BME280;54642;59.126;37.876;2023-02-28T07:59:59;98670.91;;;-0.51;78.20
67842;BME280;54642;59.126;37.876;2023-02-28T08:02:25;98661.66;;;-0.46;78.11
67842;BME280;54642;59.126;37.876;2023-02-28T08:04:51;98687.22;;;-0.39;78.01
67842;BME280;54642;59.126;37.876;2023-02-28T08:07:27;98675.56;;;-0.26;78.08
67842;BME280;54642;59.126;37.876;2023-02-28T08:09:53;98666.09;;;-0.33;77.88
67842;BME280;54642;59.126;37.876;2023-02-28T08:12:19;98673.84;;;-0.28;78.15
67842;BME280;54642;59.126;37.876;2023-02-28T08:14:45;98630.00;;;-0.62;78.02
67842;BME280;54642;59.126;37.876;2023-02-28T08:17:11;98666.06;;;-0.37;78.15
67842;BME280;54642;59.126;37.876;2023-02-28T08:19:37;98676.53;;;-0.19;78.10
67842;BME280;54642;59.126;37.876;2023-02-28T08:22:03;98655.31;;;-0.18;78.00
67842;BME280;54642;59.126;37.876;2023-02-28T08:24:29;98639.94;;;-0.24;77.75
67842;BME280;54642;59.126;37.876;2023-02-28T08:26:55;98615.38;;;-0.22;77.43
67842;BME280;54642;59.126;37.876;2023-02-28T08:29:21;98681.41;;;0.24;77.17
67842;BME280;54642;59.126;37.876;2023-02-28T08:31:47;98623.38;;;0.03;76.60
67842;BME280;54642;59.126;37.876;2023-02-28T08:34:13;98673.94;;;0.37;76.30
67842;BME280;54642;59.126;37.876;2023-02-28T08:36:40;98674.75;;;0.35;76.02
67842;BME280;54642;59.126;37.876;2023-02-28T08:39:06;98671.56;;;0.50;75.71
67842;BME280;54642;59.126;37.876;2023-02-28T08:41:32;98632.22;;;0.29;75.08
67842;BME280;54642;59.126;37.876;2023-02-28T08:43:58;98688.84;;;0.72;75.07
67842;BME280;54642;59.126;37.876;2023-02-28T08:46:25;98677.84;;;0.78;74.50
67842;BME280;54642;59.126;37.876;2023-02-28T08:48:53;98692.41;;;0.87;73.70
67842;BME280;54642;59.126;37.876;2023-02-28T08:51:19;98656.53;;;0.71;73.27
67842;BME280;54642;59.126;37.876;2023-02-28T08:53:57;98685.63;;;0.89;73.28
67842;BME280;54642;59.126;37.876;2023-02-28T08:56:23;98666.88;;;0.84;72.89
67842;BME280;54642;59.126;37.876;2023-02-28T08:58:49;98674.59;;;0.88;72.31
67842;BME280;54642;59.126;37.876;2023-02-28T09:01:20;98637.66;;;0.55;72.09
67842;BME280;54642;59.126;37.876;2023-02-28T09:03:47;98684.44;;;0.61;71.62
67842;BME280;54642;59.126;37.876;2023-02-28T09:06:15;98696.13;;;0.43;71.60
67842;BME280;54642;59.126;37.876;2023-02-28T09:08:41;98685.63;;;0.22;70.75
67842;BME280;54642;59.126;37.876;2023-02-28T09:11:07;98711.97;;;0.24;70.84
67842;BME280;54642;59.126;37.876;2023-02-28T09:13:33;98720.53;;;0.27;71.03
67842;BME280;54642;59.126;37.876;2023-02-28T09:16:00;98719.75;;;0.33;70.84
67842;BME280;54642;59.126;37.876;2023-02-28T09:18:27;98724.91;;;0.37;70.93
67842;BME280;54642;59.126;37.876;2023-02-28T09:20:53;98677.97;;;0.23;70.79
67842;BME280;54642;59.126;37.876;2023-02-28T09:23:19;98679.75;;;0.27;70.59
67842;BME280;54642;59.126;37.876;2023-02-28T09:25:52;98715.56;;;0.36;69.95
67842;BME280;54642;59.126;37.876;2023-02-28T09:28:19;98730.91;;;0.43;69.72
67842;BME280;54642;59.126;37.876;2023-02-28T09:30:48;98689.06;;;0.24;68.93
67842;BME280;54642;59.126;37.876;2023-02-28T09:33:15;98698.50;;;0.34;69.02
67842;BME280;54642;59.126;37.876;2023-02-28T09:35:42;98677.97;;;0.20;68.26
67842;BME280;54642;59.126;37.876;2023-02-28T09:38:09;98731.94;;;0.54;68.17
67842;BME280;54642;59.126;37.876;2023-02-28T09:40:47;98744.66;;;0.51;67.70
67842;BME280;54642;59.126;37.876;2023-02-28T09:43:15;98718.22;;;0.46;66.17
67842;BME280;54642;59.126;37.876;2023-02-28T09:45:51;98741.41;;;0.61;65.82
67842;BME280;54642;59.126;37.876;2023-02-28T09:48:25;98730.31;;;0.57;65.91
67842;BME280;54642;59.126;37.876;2023-02-28T09:51:04;98734.53;;;0.59;65.27
67842;BME280;54642;59.126;37.876;2023-02-28T09:53:35;98697.09;;;0.53;65.69
67842;BME280;54642;59.126;37.876;2023-02-28T09:56:09;98756.19;;;0.87;65.64
67842;BME280;54642;59.126;37.876;2023-02-28T09:58:45;98659.25;;;0.19;64.68
67842;BME280;54642;59.126;37.876;2023-02-28T10:06:48;98762.50;;;0.51;64.26
67842;BME280;54642;59.126;37.876;2023-02-28T10:09:18;98766.72;;;0.52;63.86
67842;BME280;54642;59.126;37.876;2023-02-28T10:11:48;98741.88;;;0.37;63.11
67842;BME280;54642;59.126;37.876;2023-02-28T10:14:19;98726.56;;;0.35;63.94
67842;BME280;54642;59.126;37.876;2023-02-28T10:16:56;98724.31;;;0.57;63.77
67842;BME280;54642;59.126;37.876;2023-02-28T10:19:26;98765.44;;;0.80;63.97
67842;BME280;54642;59.126;37.876;2023-02-28T10:24:51;98704.22;;;0.77;63.18
67842;BME280;54642;59.126;37.876;2023-02-28T10:29:49;98753.97;;;1.14;62.89
67842;BME280;54642;59.126;37.876;2023-02-28T10:32:18;98735.34;;;1.22;62.55
67842;BME280;54642;59.126;37.876;2023-02-28T10:34:49;98725.16;;;1.25;62.65
67842;BME280;54642;59.126;37.876;2023-02-28T10:37:16;98735.59;;;1.43;62.75
67842;BME280;54642;59.126;37.876;2023-02-28T10:39:45;98727.00;;;1.37;62.07
67842;BME280;54642;59.126;37.876;2023-02-28T10:42:29;98728.72;;;1.39;62.21
67842;BME280;54642;59.126;37.876;2023-02-28T10:47:48;98735.75;;;1.60;61.64
67842;BME280;54642;59.126;37.876;2023-02-28T10:58:26;98761.50;;;1.05;59.97
67842;BME280;54642;59.126;37.876;2023-02-28T11:00:52;98707.38;;;0.59;59.83
67842;BME280;54642;59.126;37.876;2023-02-28T11:03:33;98758.59;;;0.76;59.32
67842;BME280;54642;59.126;37.876;2023-02-28T11:06:12;98757.00;;;0.84;59.38
67842;BME280;54642;59.126;37.876;2023-02-28T11:09:00;98713.34;;;0.60;59.05
67842;BME280;54642;59.126;37.876;2023-02-28T11:11:30;98777.56;;;0.95;58.99
67842;BME280;54642;59.126;37.876;2023-02-28T11:14:06;98778.31;;;0.91;59.07
67842;BME280;54642;59.126;37.876;2023-02-28T11:16:34;98768.97;;;0.90;59.09
67842;BME280;54642;59.126;37.876;2023-02-28T11:19:02;98768.25;;;0.99;58.94
67842;BME280;54642;59.126;37.876;2023-02-28T11:21:33;98786.13;;;1.03;58.80
67842;BME280;54642;59.126;37.876;2023-02-28T11:26:44;98776.00;;;1.08;58.94
67842;BME280;54642;59.126;37.876;2023-02-28T11:29:18;98725.53;;;0.85;58.61
67842;BME280;54642;59.126;37.876;2023-02-28T11:34:35;98733.28;;;0.90;57.79
67842;BME280;54642;59.126;37.876;2023-02-28T11:37:01;98778.44;;;0.99;57.22
67842;BME280;54642;59.126;37.876;2023-02-28T11:39:32;98746.63;;;0.72;57.48
67842;BME280;54642;59.126;37.876;2023-02-28T11:53:42;98790.38;;;1.76;56.20
67842;BME280;54642;59.126;37.876;2023-02-28T12:01:54;98738.22;;;1.52;56.22
67842;BME280;54642;59.126;37.876;2023-02-28T12:07:20;98721.63;;;1.13;55.87
67842;BME280;54642;59.126;37.876;2023-02-28T12:20:18;98819.81;;;1.43;56.22
67842;BME280;54642;59.126;37.876;2023-02-28T12:26:40;98825.44;;;1.18;56.25
67842;BME280;54642;59.126;37.876;2023-02-28T12:28:54;98817.50;;;0.96;56.00
67842;BME280;54642;59.126;37.876;2023-02-28T12:31:28;98821.72;;;0.94;56.33
67842;BME280;54642;59.126;37.876;2023-02-28T12:34:01;98796.72;;;0.67;56.82
67842;BME280;54642;59.126;37.876;2023-02-28T12:36:28;98825.66;;;0.70;56.91
67842;BME280;54642;59.126;37.876;2023-02-28T12:39:00;98844.34;;;0.71;57.27
67842;BME280;54642;59.126;37.876;2023-02-28T12:41:53;98853.50;;;0.58;57.82
67842;BME280;54642;59.126;37.876;2023-02-28T12:44:35;98791.66;;;0.70;57.23
67842;BME280;54642;59.126;37.876;2023-02-28T12:47:15;98772.28;;;1.55;56.62
67842;BME280;54642;59.126;37.876;2023-02-28T12:50:07;98836.84;;;2.28;55.31
67842;BME280;54642;59.126;37.876;2023-02-28T12:55:23;98821.41;;;2.16;53.79
67842;BME280;54642;59.126;37.876;2023-02-28T13:01:02;98846.97;;;1.37;54.88
67842;BME280;54642;59.126;37.876;2023-02-28T13:04:04;98850.91;;;1.11;55.85
67842;BME280;54642;59.126;37.876;2023-02-28T13:09:09;98857.22;;;0.79;56.18
67842;BME280;54642;59.126;37.876;2023-02-28T13:19:35;98869.91;;;0.74;56.51
67842;BME280;54642;59.126;37.876;2023-02-28T13:22:02;98737.16;;;0.04;56.57
67842;BME280;54642;59.126;37.876;2023-02-28T13:24:41;98846.78;;;0.62;55.73
67842;BME280;54642;59.126;37.876;2023-02-28T13:29:40;98857.94;;;0.71;56.57
67842;BME280;54642;59.126;37.876;2023-02-28T13:47:43;98822.50;;;0.32;56.01
67842;BME280;54642;59.126;37.876;2023-02-28T13:52:55;98835.75;;;0.11;55.72
67842;BME280;54642;59.126;37.876;2023-02-28T14:11:35;98877.22;;;0.02;56.75
67842;BME280;54642;59.126;37.876;2023-02-28T14:14:02;98826.44;;;-0.34;56.53
67842;BME280;54642;59.126;37.876;2023-02-28T14:16:46;98898.44;;;0.03;56.79
67842;BME280;54642;59.126;37.876;2023-02-28T14:19:28;98894.16;;;0.02;56.86
67842;BME280;54642;59.126;37.876;2023-02-28T14:23:04;98896.66;;;-0.02;56.85
67842;BME280;54642;59.126;37.876;2023-02-28T14:25:33;98896.59;;;-0.05;56.63
67842;BME280;54642;59.126;37.876;2023-02-28T14:36:06;98899.09;;;-0.08;56.86
67842;BME280;54642;59.126;37.876;2023-02-28T14:38:40;98841.75;;;-0.33;56.79
67842;BME280;54642;59.126;37.876;2023-02-28T14:41:36;98904.34;;;0.02;56.78
67842;BME280;54642;59.126;37.876;2023-02-28T14:44:12;98852.03;;;-0.28;56.71
67842;BME280;54642;59.126;37.876;2023-02-28T14:46:40;98881.97;;;-0.15;56.76
67842;BME280;54642;59.126;37.876;2023-02-28T14:49:16;98857.13;;;-0.28;56.38
67842;BME280;54642;59.126;37.876;2023-02-28T14:51:42;98885.41;;;-0.13;56.59
67842;BME280;54642;59.126;37.876;2023-02-28T14:54:12;98899.03;;;-0.12;57.00
67842;BME280;54642;59.126;37.876;2023-02-28T14:56:39;98892.03;;;-0.23;56.93
67842;BME280;54642;59.126;37.876;2023-02-28T14:59:17;98902.22;;;-0.23;57.08
67842;BME280;54642;59.126;37.876;2023-02-28T15:01:48;98895.13;;;-0.37;56.88
67842;BME280;54642;59.126;37.876;2023-02-28T15:04:23;98847.94;;;-0.64;56.65
67842;BME280;54642;59.126;37.876;2023-02-28T15:07:10;98909.63;;;-0.33;56.80
67842;BME280;54642;59.126;37.876;2023-02-28T15:09:37;98908.72;;;-0.37;57.16
67842;BME280;54642;59.126;37.876;2023-02-28T15:12:03;98907.72;;;-0.44;57.14
67842;BME280;54642;59.126;37.876;2023-02-28T15:14:29;98891.34;;;-0.56;56.81
67842;BME280;54642;59.126;37.876;2023-02-28T15:16:59;98912.69;;;-0.50;56.77
67842;BME280;54642;59.126;37.876;2023-02-28T15:19:39;98914.28;;;-0.55;56.63
67842;BME280;54642;59.126;37.876;2023-02-28T15:22:13;98899.69;;;-0.64;56.57
67842;BME280;54642;59.126;37.876;2023-02-28T15:24:48;98915.19;;;-0.51;56.74
67842;BME280;54642;59.126;37.876;2023-02-28T15:27:16;98866.22;;;-0.81;56.70
67842;BME280;54642;59.126;37.876;2023-02-28T15:29:50;98849.84;;;-0.93;56.65
67842;BME280;54642;59.126;37.876;2023-02-28T15:32:38;98911.59;;;-0.61;56.70
67842;BME280;54642;59.126;37.876;2023-02-28T15:37:54;98931.81;;;-0.67;56.92
67842;BME280;54642;59.126;37.876;2023-02-28T15:40:29;98911.31;;;-0.75;56.74
67842;BME280;54642;59.126;37.876;2023-02-28T15:45:46;98921.41;;;-0.78;56.94
67842;BME280;54642;59.126;37.876;2023-02-28T15:48:26;98847.53;;;-1.22;56.85
67842;BME280;54642;59.126;37.876;2023-02-28T15:50:55;98931.44;;;-0.84;57.05
67842;BME280;54642;59.126;37.876;2023-02-28T15:53:28;98807.53;;;-1.67;57.39
67842;BME280;54642;59.126;37.876;2023-02-28T15:56:04;98921.94;;;-0.91;57.26
67842;BME280;54642;59.126;37.876;2023-02-28T15:58:32;98897.75;;;-1.12;57.00